createdAt,value
2019-02-25T00:01:43.943Z,1.65
2019-02-25T00:04:14.836Z,1.72
2019-02-25T00:06:45.865Z,1.61
2019-02-25T00:09:16.704Z,1.48
2019-02-25T00:11:47.610Z,1.48
2019-02-25T00:14:18.381Z,1.43
2019-02-25T00:16:49.534Z,1.35
2019-02-25T00:19:20.456Z,1.29
2019-02-25T00:21:51.443Z,1.32
2019-02-25T00:24:22.243Z,1.37
2019-02-25T00:26:53.219Z,1.45
2019-02-25T00:29:24.018Z,1.46
2019-02-25T00:31:55.014Z,1.45
2019-02-25T00:34:25.876Z,1.36
2019-02-25T00:36:56.779Z,1.28
2019-02-25T00:39:27.545Z,1.31
2019-02-25T00:41:58.536Z,1.26
2019-02-25T00:44:29.550Z,1.15
2019-02-25T00:47:00.886Z,1.16
2019-02-25T00:49:31.827Z,1.10
2019-02-25T00:52:02.999Z,1.16
2019-02-25T00:54:33.918Z,1.17
2019-02-25T00:57:04.902Z,1.13
2019-02-25T00:59:35.683Z,1.20
2019-02-25T01:02:07.069Z,1.19
2019-02-25T01:04:38.070Z,1.18
2019-02-25T01:07:09.050Z,1.11
2019-02-25T01:09:39.847Z,1.10
2019-02-25T01:12:11.735Z,1.08
2019-02-25T01:14:42.534Z,0.91
2019-02-25T01:17:13.614Z,0.91
2019-02-25T01:19:44.429Z,0.97
2019-02-25T01:22:15.419Z,0.87
2019-02-25T01:24:46.214Z,0.88
2019-02-25T01:27:17.092Z,0.90
2019-02-25T01:29:47.979Z,0.94
2019-02-25T01:32:18.957Z,0.91
2019-02-25T01:34:49.739Z,0.87
2019-02-25T01:37:20.624Z,0.86
2019-02-25T01:39:51.511Z,0.78
2019-02-25T01:42:22.417Z,0.75
2019-02-25T01:44:53.288Z,0.76
2019-02-25T01:47:24.479Z,0.72
2019-02-25T01:49:55.430Z,0.66
2019-02-25T01:52:26.266Z,0.52
2019-02-25T01:54:57.049Z,0.48
2019-02-25T01:57:27.950Z,0.59
2019-02-25T01:59:58.735Z,0.60
2019-02-25T02:02:29.912Z,0.62
2019-02-25T02:05:00.709Z,0.73
2019-02-25T02:07:31.590Z,0.73
2019-02-25T02:10:02.377Z,0.59
2019-02-25T02:12:33.695Z,0.60
2019-02-25T02:15:05.195Z,0.64
2019-02-25T02:17:37.098Z,0.72
2019-02-25T02:20:08.282Z,0.68
2019-02-25T02:22:39.267Z,0.73
2019-02-25T02:25:10.683Z,0.69
2019-02-25T02:27:42.254Z,0.53
2019-02-25T02:30:15.632Z,0.49
2019-02-25T02:32:46.612Z,0.40
2019-02-25T02:35:18.513Z,0.41
2019-02-25T02:37:49.579Z,0.44
2019-02-25T02:40:20.407Z,0.39
2019-02-25T02:42:53.167Z,0.34
2019-02-25T02:45:53.712Z,0.48
2019-02-25T02:48:34.086Z,0.53
2019-02-25T02:51:05.017Z,0.62
2019-02-25T02:53:36.073Z,0.54
2019-02-25T02:56:06.981Z,0.49
2019-02-25T02:58:39.720Z,0.47
2019-02-25T03:01:10.518Z,0.52
2019-02-25T03:03:41.687Z,0.41
2019-02-25T03:06:12.480Z,0.39
2019-02-25T03:08:43.371Z,0.36
2019-02-25T03:11:14.277Z,0.32
2019-02-25T03:13:45.239Z,0.14
2019-02-25T03:16:16.045Z,0.16
2019-02-25T03:18:46.944Z,0.16
2019-02-25T03:21:17.806Z,0.18
2019-02-25T03:23:48.690Z,0.15
2019-02-25T03:26:19.494Z,-0.07
2019-02-25T03:28:50.363Z,-0.11
2019-02-25T03:31:21.167Z,-0.08
2019-02-25T03:33:53.118Z,-0.15
2019-02-25T03:36:24.077Z,-0.10
2019-02-25T03:38:55.071Z,0.04
2019-02-25T03:41:25.881Z,0.06
2019-02-25T03:43:56.918Z,0.16
2019-02-25T03:46:28.732Z,0.15
2019-02-25T03:48:59.514Z,0.18
2019-02-25T03:51:30.417Z,0.22
2019-02-25T03:54:01.405Z,0.22
2019-02-25T03:56:32.375Z,0.21
2019-02-25T03:59:03.424Z,0.19
2019-02-25T04:01:34.377Z,0.24
2019-02-25T04:04:05.551Z,0.30
2019-02-25T04:06:36.454Z,0.26
2019-02-25T04:09:07.856Z,0.31
2019-02-25T04:11:38.731Z,0.32
2019-02-25T04:14:09.746Z,0.29
2019-02-25T04:16:40.965Z,0.35
2019-02-25T04:19:11.806Z,0.33
2019-02-25T04:21:43.786Z,0.25
2019-02-25T04:24:14.694Z,0.16
2019-02-25T04:26:45.496Z,0.21
2019-02-25T04:29:17.107Z,0.25
2019-02-25T04:31:48.139Z,0.21
2019-02-25T04:34:19.082Z,0.18
2019-02-25T04:36:49.975Z,0.13
2019-02-25T04:39:20.864Z,0.07
2019-02-25T04:41:51.559Z,-0.02
2019-02-25T04:44:22.558Z,-0.01
2019-02-25T04:46:53.531Z,-0.12
2019-02-25T04:49:24.419Z,-0.06
2019-02-25T04:51:55.185Z,-0.03
2019-02-25T04:54:26.069Z,-0.10
2019-02-25T04:56:56.960Z,-0.04
2019-02-25T04:59:27.869Z,-0.01
2019-02-25T05:01:58.641Z,0.02
2019-02-25T05:04:29.541Z,0.00
2019-02-25T05:07:00.315Z,-0.05
2019-02-25T05:09:31.191Z,-0.06
2019-02-25T05:12:02.081Z,-0.03
2019-02-25T05:14:33.190Z,0.03
2019-02-25T05:17:08.992Z,-0.02
2019-02-25T05:19:47.884Z,-0.12
2019-02-25T05:22:20.289Z,-0.07
2019-02-25T05:24:51.172Z,-0.03
2019-02-25T05:27:22.065Z,0.05
2019-02-25T05:29:53.659Z,0.05
2019-02-25T05:32:24.463Z,0.00
2019-02-25T05:34:55.362Z,-0.01
2019-02-25T05:37:26.228Z,-0.07
2019-02-25T05:39:57.328Z,-0.09
2019-02-25T05:42:28.106Z,-0.08
2019-02-25T05:44:58.970Z,-0.12
2019-02-25T05:47:29.685Z,-0.15
2019-02-25T05:50:01.214Z,-0.26
2019-02-25T05:52:32.065Z,-0.32
2019-02-25T05:55:02.885Z,-0.24
2019-02-25T05:57:34.747Z,-0.13
2019-02-25T06:00:06.515Z,-0.11
2019-02-25T06:02:37.360Z,-0.12
2019-02-25T06:05:08.424Z,-0.12
2019-02-25T06:07:39.235Z,-0.16
2019-02-25T06:10:10.611Z,-0.14
2019-02-25T06:12:41.510Z,-0.15
2019-02-25T06:15:13.390Z,-0.18
2019-02-25T06:17:44.343Z,-0.16
2019-02-25T06:20:15.980Z,-0.15
2019-02-25T06:22:47.000Z,-0.11
2019-02-25T06:25:18.263Z,-0.09
2019-02-25T06:27:49.091Z,-0.11
2019-02-25T06:30:20.125Z,-0.08
2019-02-25T06:32:51.166Z,-0.21
2019-02-25T06:35:22.329Z,-0.26
2019-02-25T06:37:53.349Z,-0.18
2019-02-25T06:40:24.254Z,-0.11
2019-02-25T06:42:55.035Z,-0.11
2019-02-25T06:45:26.410Z,-0.09
2019-02-25T06:47:57.214Z,-0.02
2019-02-25T06:50:28.099Z,0.07
2019-02-25T06:52:58.646Z,0.15
2019-02-25T06:55:29.661Z,0.19
2019-02-25T06:58:00.458Z,0.22
2019-02-25T07:00:31.437Z,0.23
2019-02-25T07:03:02.124Z,0.26
2019-02-25T07:05:53.437Z,0.30
2019-02-25T07:08:45.982Z,0.33
2019-02-25T07:11:47.846Z,0.40
2019-02-25T07:14:36.399Z,0.44
2019-02-25T07:17:18.600Z,0.51
2019-02-25T07:20:11.479Z,0.54
2019-02-25T07:22:56.216Z,0.63
2019-02-25T07:25:39.790Z,0.71
2019-02-25T07:28:32.517Z,0.80
2019-02-25T07:31:21.043Z,0.89
2019-02-25T07:34:13.290Z,0.98
2019-02-25T07:37:03.172Z,1.13
2019-02-25T07:39:49.454Z,1.13
2019-02-25T07:42:45.294Z,1.29
2019-02-25T07:45:35.484Z,1.33
2019-02-25T07:48:20.764Z,1.47
2019-02-25T07:51:09.821Z,1.60
2019-02-25T07:53:55.628Z,1.65
2019-02-25T07:56:45.797Z,1.79
2019-02-25T07:59:35.680Z,1.92
2019-02-25T08:02:28.740Z,2.07
2019-02-25T08:05:24.266Z,2.20
2019-02-25T08:08:15.260Z,2.33
2019-02-25T08:11:17.368Z,2.45
2019-02-25T08:14:05.784Z,2.61
2019-02-25T08:16:55.666Z,2.86
2019-02-25T08:19:43.499Z,3.04
2019-02-25T08:22:45.613Z,3.16
2019-02-25T08:25:47.737Z,3.31
2019-02-25T08:28:32.599Z,3.42
2019-02-25T08:31:25.298Z,3.44
2019-02-25T08:34:18.597Z,3.50
2019-02-25T08:37:28.493Z,3.51
2019-02-25T08:40:33.887Z,3.63
2019-02-25T08:43:18.755Z,3.73
2019-02-25T08:46:14.609Z,3.96
2019-02-25T08:48:50.659Z,3.95
2019-02-25T08:51:21.506Z,4.04
2019-02-25T08:53:52.323Z,4.10
2019-02-25T08:56:23.231Z,4.18
2019-02-25T08:58:54.099Z,4.29
2019-02-25T09:01:25.034Z,4.43
2019-02-25T09:03:56.047Z,4.76
2019-02-25T09:06:26.933Z,4.79
2019-02-25T09:08:57.907Z,4.91
2019-02-25T09:11:28.731Z,4.99
2019-02-25T09:13:59.602Z,5.04
2019-02-25T09:16:30.362Z,4.97
2019-02-25T09:19:01.278Z,5.00
2019-02-25T09:21:32.295Z,5.13
2019-02-25T09:24:03.074Z,5.18
2019-02-25T09:26:35.110Z,5.33
2019-02-25T09:29:07.051Z,5.62
2019-02-25T09:31:37.839Z,5.80
2019-02-25T09:34:09.307Z,5.69
2019-02-25T09:36:40.142Z,5.86
2019-02-25T09:39:13.091Z,6.03
2019-02-25T09:41:44.041Z,5.95
2019-02-25T09:44:15.046Z,6.03
2019-02-25T09:46:45.943Z,6.09
2019-02-25T09:49:16.811Z,6.19
2019-02-25T09:51:47.605Z,6.25
2019-02-25T09:54:18.483Z,6.35
2019-02-25T09:56:49.279Z,6.61
2019-02-25T09:59:20.185Z,6.50
2019-02-25T10:01:50.964Z,6.68
2019-02-25T10:04:21.957Z,6.83
2019-02-25T10:07:01.980Z,7.04
2019-02-25T10:09:29.884Z,7.02
2019-02-25T10:11:58.084Z,7.13
2019-02-25T10:14:29.075Z,7.14
2019-02-25T10:16:59.874Z,7.22
2019-02-25T10:19:30.754Z,7.23
2019-02-25T10:22:01.532Z,7.44
2019-02-25T10:24:32.369Z,7.66
2019-02-25T10:27:03.983Z,7.59
2019-02-25T10:29:34.927Z,7.74
2019-02-25T10:32:06.581Z,7.79
2019-02-25T10:34:37.611Z,7.81
2019-02-25T10:37:08.973Z,7.87
2019-02-25T10:39:41.656Z,7.92
2019-02-25T10:42:13.454Z,8.25
2019-02-25T10:44:44.416Z,8.37
2019-02-25T10:47:17.205Z,8.36
2019-02-25T10:49:47.901Z,8.30
2019-02-25T10:52:18.747Z,8.31
2019-02-25T10:54:50.376Z,8.34
2019-02-25T10:57:26.442Z,8.53
2019-02-25T10:59:56.458Z,8.78
2019-02-25T11:02:27.370Z,8.91
2019-02-25T11:04:58.255Z,9.01
2019-02-25T11:07:30.735Z,9.10
2019-02-25T11:10:29.864Z,9.05
2019-02-25T11:13:02.124Z,8.98
2019-02-25T11:15:35.198Z,8.92
2019-02-25T11:18:08.223Z,9.20
2019-02-25T11:20:39.110Z,9.23
2019-02-25T11:23:12.302Z,9.40
2019-02-25T11:25:42.810Z,9.63
2019-02-25T11:28:24.805Z,9.74
2019-02-25T11:30:47.575Z,9.67
2019-02-25T11:33:18.872Z,9.89
2019-02-25T11:35:49.660Z,9.92
2019-02-25T11:38:20.847Z,9.96
2019-02-25T11:40:51.625Z,10.14
2019-02-25T11:43:22.600Z,10.06
2019-02-25T11:45:53.413Z,10.13
2019-02-25T11:48:24.316Z,10.20
2019-02-25T11:50:55.088Z,10.34
2019-02-25T11:53:26.054Z,10.32
2019-02-25T11:55:56.952Z,10.31
2019-02-25T11:58:28.045Z,10.34
2019-02-25T12:00:58.950Z,10.50
2019-02-25T12:03:29.935Z,10.65
2019-02-25T12:06:00.700Z,10.69
2019-02-25T12:08:31.592Z,10.76
2019-02-25T12:11:02.283Z,10.80
2019-02-25T12:13:33.180Z,10.75
2019-02-25T12:16:04.072Z,10.89
2019-02-25T12:18:34.985Z,11.07
2019-02-25T12:21:06.251Z,11.00
2019-02-25T12:23:37.084Z,10.95
2019-02-25T12:26:07.923Z,11.06
2019-02-25T12:28:38.920Z,10.93
2019-02-25T12:31:09.683Z,11.15
2019-02-25T12:33:40.621Z,11.23
2019-02-25T12:36:13.630Z,11.25
2019-02-25T12:38:44.140Z,11.52
2019-02-25T12:41:15.136Z,11.80
2019-02-25T12:43:46.132Z,11.73
2019-02-25T12:46:17.000Z,11.73
2019-02-25T12:48:48.201Z,11.72
2019-02-25T12:51:19.242Z,11.78
2019-02-25T12:53:50.039Z,11.85
2019-02-25T12:56:20.982Z,11.83
2019-02-25T12:58:51.764Z,12.06
2019-02-25T13:01:22.769Z,12.16
2019-02-25T13:03:53.628Z,12.35
2019-02-25T13:06:24.571Z,12.50
2019-02-25T13:08:55.403Z,12.32
2019-02-25T13:11:26.288Z,12.11
2019-02-25T13:13:57.088Z,12.23
2019-02-25T13:16:27.852Z,12.40
2019-02-25T13:18:58.658Z,12.45
2019-02-25T13:21:29.641Z,12.66
2019-02-25T13:24:02.009Z,12.51
2019-02-25T13:26:33.945Z,12.64
2019-02-25T13:29:05.415Z,12.66
2019-02-25T13:31:36.223Z,12.73
2019-02-25T13:34:08.233Z,12.71
2019-02-25T13:36:39.176Z,12.62
2019-02-25T13:39:10.343Z,12.89
2019-02-25T13:41:41.284Z,12.96
2019-02-25T13:44:12.169Z,13.10
2019-02-25T13:46:43.143Z,13.20
2019-02-25T13:49:14.019Z,13.35
2019-02-25T13:51:44.908Z,13.25
2019-02-25T13:54:15.675Z,13.26
2019-02-25T13:56:47.555Z,13.23
2019-02-25T13:59:18.527Z,13.32
2019-02-25T14:01:49.486Z,13.67
2019-02-25T14:04:20.298Z,13.76
2019-02-25T14:06:51.204Z,13.82
2019-02-25T14:09:22.201Z,13.85
2019-02-25T14:11:53.140Z,13.76
2019-02-25T14:14:24.128Z,13.78
2019-02-25T14:16:55.046Z,13.89
2019-02-25T14:19:25.941Z,13.86
2019-02-25T14:21:56.939Z,13.90
2019-02-25T14:24:27.817Z,13.95
2019-02-25T14:26:58.651Z,13.98
2019-02-25T14:29:30.042Z,14.13
2019-02-25T14:32:01.161Z,14.14
2019-02-25T14:34:32.025Z,14.28
2019-02-25T14:37:04.801Z,14.42
2019-02-25T14:39:38.063Z,14.40
2019-02-25T14:42:09.365Z,14.43
2019-02-25T14:44:43.344Z,14.52
2019-02-25T14:47:20.687Z,14.54
2019-02-25T14:49:46.475Z,14.52
2019-02-25T14:52:19.296Z,14.41
2019-02-25T14:54:50.716Z,14.56
2019-02-25T14:57:21.839Z,14.50
2019-02-25T14:59:52.784Z,14.65
2019-02-25T15:02:23.722Z,14.56
2019-02-25T15:04:54.670Z,14.49
2019-02-25T15:07:25.952Z,14.47
2019-02-25T15:09:57.939Z,14.53
2019-02-25T15:12:31.153Z,14.48
2019-02-25T15:15:02.697Z,14.51
2019-02-25T15:17:34.687Z,14.57
2019-02-25T15:20:06.076Z,14.46
2019-02-25T15:22:38.356Z,14.51
2019-02-25T15:25:10.816Z,14.45
2019-02-25T15:27:41.720Z,14.29
2019-02-25T15:30:16.672Z,14.28
2019-02-25T15:32:55.811Z,14.28
2019-02-25T15:35:20.708Z,14.33
2019-02-25T15:37:53.039Z,14.46
2019-02-25T15:40:25.061Z,14.50
2019-02-25T15:43:05.059Z,14.46
2019-02-25T15:45:38.337Z,14.28
2019-02-25T15:48:16.327Z,14.30
2019-02-25T15:50:48.412Z,14.30
2019-02-25T15:53:20.599Z,14.01
2019-02-25T15:55:51.776Z,13.69
2019-02-25T15:58:23.071Z,13.44
2019-02-25T16:00:54.182Z,13.33
2019-02-25T16:03:25.863Z,13.22
2019-02-25T16:06:01.048Z,12.91
2019-02-25T16:08:31.150Z,12.76
2019-02-25T16:11:02.312Z,12.50
2019-02-25T16:13:33.917Z,12.33
2019-02-25T16:16:07.127Z,12.18
2019-02-25T16:18:40.292Z,11.98
2019-02-25T16:21:11.211Z,11.80
2019-02-25T16:23:45.254Z,11.66
2019-02-25T16:26:17.798Z,11.56
2019-02-25T16:28:50.312Z,11.38
2019-02-25T16:31:21.428Z,11.05
2019-02-25T16:33:53.478Z,10.83
2019-02-25T16:36:26.215Z,10.75
2019-02-25T16:38:58.571Z,10.77
2019-02-25T16:41:32.393Z,10.82
2019-02-25T16:44:04.395Z,10.85
2019-02-25T16:46:38.713Z,10.64
2019-02-25T16:49:07.666Z,10.49
2019-02-25T16:51:38.792Z,10.35
2019-02-25T16:54:11.669Z,10.21
2019-02-25T16:56:42.213Z,10.03
2019-02-25T16:59:15.244Z,9.98
2019-02-25T17:01:46.096Z,9.94
2019-02-25T17:04:20.411Z,9.94
2019-02-25T17:06:51.224Z,9.83
2019-02-25T17:09:25.507Z,9.71
2019-02-25T17:11:58.099Z,9.64
2019-02-25T17:14:29.317Z,9.55
2019-02-25T17:17:00.206Z,9.56
2019-02-25T17:19:30.999Z,9.58
2019-02-25T17:22:04.470Z,9.39
2019-02-25T17:24:35.255Z,9.26
2019-02-25T17:27:08.957Z,9.24
2019-02-25T17:29:39.977Z,9.24
2019-02-25T17:32:12.249Z,9.13
2019-02-25T17:34:43.799Z,9.09
2019-02-25T17:37:15.372Z,9.01
2019-02-25T17:39:47.128Z,8.92
2019-02-25T17:42:19.744Z,8.86
2019-02-25T17:44:53.457Z,8.75
2019-02-25T17:47:26.791Z,8.66
2019-02-25T17:49:56.727Z,8.66
2019-02-25T17:52:28.519Z,8.70
2019-02-25T17:54:59.391Z,8.70
2019-02-25T17:57:32.938Z,8.60
2019-02-25T18:00:06.909Z,8.35
2019-02-25T18:02:40.118Z,8.14
2019-02-25T18:05:12.086Z,7.94
2019-02-25T18:07:46.342Z,7.83
2019-02-25T18:10:17.277Z,7.85
2019-02-25T18:12:48.415Z,7.78
2019-02-25T18:15:21.901Z,7.68
2019-02-25T18:17:53.529Z,7.76
2019-02-25T18:20:24.625Z,7.77
2019-02-25T18:22:55.447Z,7.82
2019-02-25T18:25:26.450Z,7.92
2019-02-25T18:27:57.514Z,7.94
2019-02-25T18:30:30.149Z,7.94
2019-02-25T18:33:04.633Z,7.90
2019-02-25T18:35:36.868Z,7.78
2019-02-25T18:38:09.603Z,7.67
2019-02-25T18:40:42.910Z,7.56
2019-02-25T18:43:13.530Z,7.58
2019-02-25T18:45:44.756Z,7.63
2019-02-25T18:48:16.945Z,7.59
2019-02-25T18:50:50.167Z,7.61
2019-02-25T18:53:21.242Z,7.52
2019-02-25T18:55:55.015Z,7.45
2019-02-25T18:58:26.847Z,7.33
2019-02-25T19:00:57.900Z,7.17
2019-02-25T19:03:33.132Z,7.08
2019-02-25T19:06:05.099Z,7.04
2019-02-25T19:08:36.045Z,6.98
2019-02-25T19:11:07.198Z,6.98
2019-02-25T19:13:38.038Z,6.99
2019-02-25T19:16:09.192Z,6.91
2019-02-25T19:18:41.383Z,6.86
2019-02-25T19:21:12.944Z,6.91
2019-02-25T19:23:45.908Z,6.97
2019-02-25T19:26:17.369Z,7.02
2019-02-25T19:28:50.135Z,7.02
2019-02-25T19:31:21.531Z,6.90
2019-02-25T19:33:52.511Z,6.79
2019-02-25T19:36:25.668Z,6.76
2019-02-25T19:38:56.827Z,6.80
2019-02-25T19:41:29.836Z,6.84
2019-02-25T19:44:03.300Z,6.79
2019-02-25T19:46:33.123Z,6.65
2019-02-25T19:49:04.212Z,6.48
2019-02-25T19:51:35.013Z,6.33
2019-02-25T19:54:07.073Z,6.15
2019-02-25T19:56:38.421Z,6.13
2019-02-25T19:59:09.443Z,6.08
2019-02-25T20:01:40.416Z,6.07
2019-02-25T20:04:12.315Z,5.89
2019-02-25T20:06:44.920Z,5.71
2019-02-25T20:09:17.744Z,5.48
2019-02-25T20:11:48.671Z,5.39
2019-02-25T20:14:19.812Z,5.37
2019-02-25T20:16:50.855Z,5.42
2019-02-25T20:19:22.368Z,5.49
2019-02-25T20:21:54.702Z,5.42
2019-02-25T20:24:26.295Z,5.36
2019-02-25T20:27:00.110Z,5.30
2019-02-25T20:29:29.885Z,5.32
2019-02-25T20:32:00.910Z,5.39
2019-02-25T20:34:32.224Z,5.50
2019-02-25T20:37:04.345Z,5.33
2019-02-25T20:39:35.917Z,5.34
2019-02-25T20:42:07.811Z,5.33
2019-02-25T20:44:39.634Z,5.31
2019-02-25T20:47:10.529Z,5.26
2019-02-25T20:49:41.404Z,5.32
2019-02-25T20:52:13.477Z,5.29
2019-02-25T20:54:47.520Z,5.19
2019-02-25T20:57:18.704Z,5.10
2019-02-25T20:59:51.006Z,5.00
2019-02-25T21:02:23.158Z,4.87
2019-02-25T21:04:55.174Z,4.70
2019-02-25T21:07:27.605Z,4.77
2019-02-25T21:10:00.798Z,4.71
2019-02-25T21:12:31.307Z,4.81
2019-02-25T21:15:02.196Z,4.65
2019-02-25T21:17:35.544Z,4.67
2019-02-25T21:20:10.130Z,4.70
2019-02-25T21:22:41.107Z,4.77
2019-02-25T21:25:11.899Z,4.62
2019-02-25T21:27:43.037Z,4.70
2019-02-25T21:30:15.416Z,4.68
2019-02-25T21:32:47.379Z,4.51
2019-02-25T21:35:19.064Z,4.45
2019-02-25T21:37:52.297Z,4.34
2019-02-25T21:40:24.644Z,4.43
2019-02-25T21:42:56.747Z,4.33
2019-02-25T21:45:31.748Z,4.30
2019-02-25T21:48:02.060Z,4.29
2019-02-25T21:50:35.463Z,4.24
2019-02-25T21:53:07.507Z,4.20
2019-02-25T21:55:38.519Z,4.17
2019-02-25T21:58:09.368Z,4.13
2019-02-25T22:00:40.850Z,4.16
2019-02-25T22:03:13.180Z,4.06
2019-02-25T22:05:44.354Z,3.95
2019-02-25T22:08:15.251Z,3.95
2019-02-25T22:10:46.243Z,3.74
2019-02-25T22:13:18.334Z,3.86
2019-02-25T22:15:49.655Z,3.73
2019-02-25T22:18:20.550Z,3.76
2019-02-25T22:20:51.588Z,3.79
2019-02-25T22:23:25.821Z,3.74
2019-02-25T22:25:54.959Z,3.76
2019-02-25T22:28:25.904Z,3.69
2019-02-25T22:30:56.784Z,3.72
2019-02-25T22:33:28.292Z,3.57
2019-02-25T22:36:00.347Z,3.58
2019-02-25T22:38:31.235Z,3.44
2019-02-25T22:41:02.329Z,3.55
2019-02-25T22:43:33.339Z,3.58
2019-02-25T22:46:05.436Z,3.56
2019-02-25T22:48:37.590Z,3.45
2019-02-25T22:51:09.242Z,3.45
2019-02-25T22:53:40.142Z,3.38
2019-02-25T22:56:13.357Z,3.36
2019-02-25T22:58:44.775Z,3.35
2019-02-25T23:01:18.032Z,3.44
2019-02-25T23:03:52.158Z,3.47
2019-02-25T23:06:23.612Z,3.55
2019-02-25T23:08:56.534Z,3.52
2019-02-25T23:11:27.490Z,3.24
2019-02-25T23:13:58.236Z,3.20
2019-02-25T23:16:29.205Z,3.03
2019-02-25T23:18:59.996Z,3.01
2019-02-25T23:21:32.155Z,3.02
2019-02-25T23:24:05.042Z,3.12
2019-02-25T23:26:35.999Z,3.30
2019-02-25T23:29:06.894Z,3.41
2019-02-25T23:31:37.879Z,3.45
2019-02-25T23:34:10.284Z,3.57
2019-02-25T23:36:44.792Z,3.59
2019-02-25T23:39:17.097Z,3.27
2019-02-25T23:41:48.655Z,3.20
2019-02-25T23:44:20.275Z,3.14
2019-02-25T23:46:55.234Z,3.14
2019-02-25T23:49:27.237Z,3.14
2019-02-25T23:51:57.149Z,3.11
2019-02-25T23:54:28.283Z,3.13
2019-02-25T23:57:00.160Z,3.16
2019-02-25T23:59:31.636Z,3.01
